METAR Data

Data at: 1156 UTC 24 May 2022

METAR for:KBVY (Beverly Muni, MA, US)
Text:KBVY 241153Z 04011G16KT 10SM CLR 12/05 A3035 RMK AO2 SLP273 T01220050 10133 20111 51014
Temperature: 12.2°C ( 54°F)
Dewpoint: 5.0°C ( 41°F) [RH = 61%]
Pressure (altimeter):30.35 inches Hg (1027.9 mb) [Sea level pressure: 1027.3 mb]
Winds:from the NE (40 degrees) at 13 MPH (11 knots; 5.7 m/s) gusting to 18 MPH (16 knots; 8.2 m/s)
Visibility:10 or more sm (16+ km)
Ceiling:at least 12,000 feet AGL
Clouds:sky clear below 12,000 feet AGL